Brayton, United Kingdom
Current Conditions -  °F | °C
As of 9:50 PM on Sunday 25 Jan 2015 (Local Time) from EGXU Reporting Station
Broken Clouds Broken Clouds  
Wind Chill: 43°   Ceiling: 19000
Heat Index: 46°   Visibility: 6mi
Dew Point: 45°   Wind: 7mph
Humidity: 93%   Direction: 140°SE
Pressure: 30.12"   Gusts: NA
Location:  53.77°N, 1.09°W
Report Text: EGXU 252150Z AUTO 14006KT 9999 // SCT015/// SCT020/// BKN190/// 08/07 Q1020
Loading
Personal Weather Stations






























Interactive Weather Map New forecast layout! Learn more

10-Day Weather Forecast

Advertisements
Track Severe Weather on mobile